sensor_id;sensor_type;location;lat;lon;timestamp;temperature;humidity
16313;DHT22;8265;52.622;13.296;2024-03-02T00:04:59;4.90;95.90
16313;DHT22;8265;52.622;13.296;2024-03-02T00:10:21;4.90;95.90
16313;DHT22;8265;52.622;13.296;2024-03-02T00:15:47;5.00;96.40
16313;DHT22;8265;52.622;13.296;2024-03-02T00:21:02;5.00;96.20
16313;DHT22;8265;52.622;13.296;2024-03-02T00:26:23;5.10;96.10
16313;DHT22;8265;52.622;13.296;2024-03-02T00:31:44;5.10;96.10
16313;DHT22;8265;52.622;13.296;2024-03-02T00:37:05;5.10;96.40
16313;DHT22;8265;52.622;13.296;2024-03-02T00:42:26;5.10;96.40
16313;DHT22;8265;52.622;13.296;2024-03-02T00:47:47;5.20;96.60
16313;DHT22;8265;52.622;13.296;2024-03-02T00:53:10;5.30;96.20
16313;DHT22;8265;52.622;13.296;2024-03-02T00:58:29;5.30;96.30
16313;DHT22;8265;52.622;13.296;2024-03-02T01:03:50;5.30;96.40
16313;DHT22;8265;52.622;13.296;2024-03-02T01:09:11;5.30;96.60
16313;DHT22;8265;52.622;13.296;2024-03-02T01:14:32;5.50;96.80
16313;DHT22;8265;52.622;13.296;2024-03-02T01:19:53;5.50;96.40
16313;DHT22;8265;52.622;13.296;2024-03-02T01:25:14;5.50;96.90
16313;DHT22;8265;52.622;13.296;2024-03-02T01:30:35;5.50;97.40
16313;DHT22;8265;52.622;13.296;2024-03-02T01:35:56;5.50;97.70
16313;DHT22;8265;52.622;13.296;2024-03-02T01:41:17;5.50;98.00
16313;DHT22;8265;52.622;13.296;2024-03-02T01:46:38;5.60;98.30
16313;DHT22;8265;52.622;13.296;2024-03-02T01:51:59;5.70;98.60
16313;DHT22;8265;52.622;13.296;2024-03-02T01:57:19;5.80;98.50
16313;DHT22;8265;52.622;13.296;2024-03-02T02:02:40;5.80;98.60
16313;DHT22;8265;52.622;13.296;2024-03-02T02:08:02;5.80;98.30
16313;DHT22;8265;52.622;13.296;2024-03-02T02:13:22;5.80;98.30
16313;DHT22;8265;52.622;13.296;2024-03-02T02:18:44;5.80;98.30
16313;DHT22;8265;52.622;13.296;2024-03-02T02:24:05;5.80;98.30
16313;DHT22;8265;52.622;13.296;2024-03-02T02:29:26;5.60;98.60
16313;DHT22;8265;52.622;13.296;2024-03-02T02:34:46;5.50;99.00
16313;DHT22;8265;52.622;13.296;2024-03-02T02:40:08;5.50;99.40
16313;DHT22;8265;52.622;13.296;2024-03-02T02:45:28;5.70;99.70
16313;DHT22;8265;52.622;13.296;2024-03-02T02:50:49;5.70;99.40
16313;DHT22;8265;52.622;13.296;2024-03-02T02:56:10;5.60;99.50
16313;DHT22;8265;52.622;13.296;2024-03-02T03:01:31;5.60;99.70
16313;DHT22;8265;52.622;13.296;2024-03-02T03:06:52;5.70;99.90
16313;DHT22;8265;52.622;13.296;2024-03-02T03:12:13;5.80;99.90
16313;DHT22;8265;52.622;13.296;2024-03-02T03:17:34;6.00;99.70
16313;DHT22;8265;52.622;13.296;2024-03-02T03:22:55;6.20;99.40
16313;DHT22;8265;52.622;13.296;2024-03-02T03:28:16;6.20;98.40
16313;DHT22;8265;52.622;13.296;2024-03-02T03:33:37;6.20;98.10
16313;DHT22;8265;52.622;13.296;2024-03-02T03:38:58;6.30;97.90
16313;DHT22;8265;52.622;13.296;2024-03-02T03:44:19;6.30;97.90
16313;DHT22;8265;52.622;13.296;2024-03-02T03:49:40;6.40;97.70
16313;DHT22;8265;52.622;13.296;2024-03-02T03:55:01;6.40;97.80
16313;DHT22;8265;52.622;13.296;2024-03-02T04:00:22;6.50;97.80
16313;DHT22;8265;52.622;13.296;2024-03-02T04:05:43;6.60;97.90
16313;DHT22;8265;52.622;13.296;2024-03-02T04:11:04;6.50;97.60
16313;DHT22;8265;52.622;13.296;2024-03-02T04:16:25;6.60;98.00
16313;DHT22;8265;52.622;13.296;2024-03-02T04:21:46;6.60;98.10
16313;DHT22;8265;52.622;13.296;2024-03-02T04:27:07;6.70;97.90
16313;DHT22;8265;52.622;13.296;2024-03-02T04:32:28;6.50;98.20
16313;DHT22;8265;52.622;13.296;2024-03-02T04:37:49;6.50;99.10
16313;DHT22;8265;52.622;13.296;2024-03-02T04:43:10;6.50;99.50
16313;DHT22;8265;52.622;13.296;2024-03-02T04:48:31;6.50;99.40
16313;DHT22;8265;52.622;13.296;2024-03-02T04:53:52;6.50;99.60
16313;DHT22;8265;52.622;13.296;2024-03-02T04:59:13;6.60;99.50
16313;DHT22;8265;52.622;13.296;2024-03-02T05:04:34;6.50;99.40
16313;DHT22;8265;52.622;13.296;2024-03-02T05:09:55;6.50;99.40
16313;DHT22;8265;52.622;13.296;2024-03-02T05:15:16;6.40;99.30
16313;DHT22;8265;52.622;13.296;2024-03-02T05:20:37;6.40;99.80
16313;DHT22;8265;52.622;13.296;2024-03-02T05:25:58;6.40;99.90
16313;DHT22;8265;52.622;13.296;2024-03-02T05:31:19;6.40;99.90
16313;DHT22;8265;52.622;13.296;2024-03-02T05:36:40;6.50;99.90
16313;DHT22;8265;52.622;13.296;2024-03-02T05:42:01;6.50;99.90
16313;DHT22;8265;52.622;13.296;2024-03-02T05:47:21;6.70;99.90
16313;DHT22;8265;52.622;13.296;2024-03-02T05:52:42;6.90;99.90
16313;DHT22;8265;52.622;13.296;2024-03-02T05:58:03;7.00;99.90
16313;DHT22;8265;52.622;13.296;2024-03-02T06:03:24;7.10;99.90
16313;DHT22;8265;52.622;13.296;2024-03-02T06:08:45;7.20;99.90
16313;DHT22;8265;52.622;13.296;2024-03-02T06:14:07;7.20;99.90
16313;DHT22;8265;52.622;13.296;2024-03-02T06:19:27;7.20;99.90
16313;DHT22;8265;52.622;13.296;2024-03-02T06:24:48;7.20;99.90
16313;DHT22;8265;52.622;13.296;2024-03-02T06:30:10;7.20;99.90
16313;DHT22;8265;52.622;13.296;2024-03-02T06:35:30;7.20;99.90
16313;DHT22;8265;52.622;13.296;2024-03-02T06:40:51;7.20;99.90
16313;DHT22;8265;52.622;13.296;2024-03-02T06:46:12;7.20;99.90
16313;DHT22;8265;52.622;13.296;2024-03-02T06:51:33;7.50;99.90
16313;DHT22;8265;52.622;13.296;2024-03-02T06:56:54;7.50;99.90
16313;DHT22;8265;52.622;13.296;2024-03-02T07:02:15;7.60;98.80
16313;DHT22;8265;52.622;13.296;2024-03-02T07:07:36;7.40;98.60
16313;DHT22;8265;52.622;13.296;2024-03-02T07:12:57;7.20;98.90
16313;DHT22;8265;52.622;13.296;2024-03-02T07:18:18;6.90;99.50
16313;DHT22;8265;52.622;13.296;2024-03-02T07:23:39;7.60;99.90
16313;DHT22;8265;52.622;13.296;2024-03-02T07:29:00;7.80;97.70
16313;DHT22;8265;52.622;13.296;2024-03-02T07:34:21;8.40;94.80
16313;DHT22;8265;52.622;13.296;2024-03-02T07:39:43;8.80;94.00
16313;DHT22;8265;52.622;13.296;2024-03-02T07:45:03;9.40;89.50
16313;DHT22;8265;52.622;13.296;2024-03-02T07:50:24;9.50;88.50
16313;DHT22;8265;52.622;13.296;2024-03-02T07:55:45;9.20;88.90
16313;DHT22;8265;52.622;13.296;2024-03-02T08:01:06;9.80;86.40
16313;DHT22;8265;52.622;13.296;2024-03-02T08:06:27;9.70;86.30
16313;DHT22;8265;52.622;13.296;2024-03-02T08:11:48;10.10;84.40
16313;DHT22;8265;52.622;13.296;2024-03-02T08:17:09;10.00;85.20
16313;DHT22;8265;52.622;13.296;2024-03-02T08:22:30;9.70;85.70
16313;DHT22;8265;52.622;13.296;2024-03-02T08:27:51;9.60;87.10
16313;DHT22;8265;52.622;13.296;2024-03-02T08:33:12;9.60;87.80
16313;DHT22;8265;52.622;13.296;2024-03-02T08:38:33;9.80;86.30
16313;DHT22;8265;52.622;13.296;2024-03-02T08:43:54;10.10;85.80
16313;DHT22;8265;52.622;13.296;2024-03-02T08:49:15;10.20;84.70
16313;DHT22;8265;52.622;13.296;2024-03-02T08:54:36;10.00;85.00
16313;DHT22;8265;52.622;13.296;2024-03-02T08:59:57;10.20;85.20
16313;DHT22;8265;52.622;13.296;2024-03-02T09:05:18;10.00;85.00
16313;DHT22;8265;52.622;13.296;2024-03-02T09:10:39;10.00;85.20
16313;DHT22;8265;52.622;13.296;2024-03-02T09:16:00;10.20;84.10
16313;DHT22;8265;52.622;13.296;2024-03-02T09:21:21;10.10;83.60
16313;DHT22;8265;52.622;13.296;2024-03-02T09:26:42;10.00;84.70
16313;DHT22;8265;52.622;13.296;2024-03-02T09:32:03;9.90;84.40
16313;DHT22;8265;52.622;13.296;2024-03-02T09:37:24;9.80;84.60
16313;DHT22;8265;52.622;13.296;2024-03-02T09:42:45;10.20;83.60
16313;DHT22;8265;52.622;13.296;2024-03-02T09:48:06;10.00;84.00
16313;DHT22;8265;52.622;13.296;2024-03-02T09:53:29;9.80;83.40
16313;DHT22;8265;52.622;13.296;2024-03-02T09:58:48;10.00;84.00
16313;DHT22;8265;52.622;13.296;2024-03-02T10:04:09;9.90;84.00
16313;DHT22;8265;52.622;13.296;2024-03-02T10:09:36;10.20;82.90
16313;DHT22;8265;52.622;13.296;2024-03-02T10:14:52;10.20;82.00
16313;DHT22;8265;52.622;13.296;2024-03-02T10:20:23;10.60;80.70
16313;DHT22;8265;52.622;13.296;2024-03-02T10:25:33;10.80;81.80
16313;DHT22;8265;52.622;13.296;2024-03-02T10:30:54;10.80;81.40
16313;DHT22;8265;52.622;13.296;2024-03-02T10:36:15;11.10;79.20
16313;DHT22;8265;52.622;13.296;2024-03-02T10:41:37;10.90;79.80
16313;DHT22;8265;52.622;13.296;2024-03-02T10:46:59;11.00;79.00
16313;DHT22;8265;52.622;13.296;2024-03-02T10:52:18;11.60;78.90
16313;DHT22;8265;52.622;13.296;2024-03-02T10:57:45;11.70;76.50
16313;DHT22;8265;52.622;13.296;2024-03-02T11:03:06;11.30;77.70
16313;DHT22;8265;52.622;13.296;2024-03-02T11:08:21;11.60;77.50
16313;DHT22;8265;52.622;13.296;2024-03-02T11:13:44;11.70;77.10
16313;DHT22;8265;52.622;13.296;2024-03-02T11:19:06;11.50;75.90
16313;DHT22;8265;52.622;13.296;2024-03-02T11:29:45;11.50;76.90
16313;DHT22;8265;52.622;13.296;2024-03-02T11:35:06;11.70;76.00
16313;DHT22;8265;52.622;13.296;2024-03-02T11:40:30;11.40;76.00
16313;DHT22;8265;52.622;13.296;2024-03-02T11:45:48;11.20;75.80
16313;DHT22;8265;52.622;13.296;2024-03-02T11:51:17;11.50;75.20
16313;DHT22;8265;52.622;13.296;2024-03-02T11:56:37;11.50;74.60
16313;DHT22;8265;52.622;13.296;2024-03-02T12:01:59;12.10;73.80
16313;DHT22;8265;52.622;13.296;2024-03-02T12:07:20;12.00;71.90
16313;DHT22;8265;52.622;13.296;2024-03-02T12:12:40;11.90;71.50
16313;DHT22;8265;52.622;13.296;2024-03-02T12:18:01;12.20;72.30
16313;DHT22;8265;52.622;13.296;2024-03-02T12:23:22;12.30;72.20
16313;DHT22;8265;52.622;13.296;2024-03-02T12:28:43;13.00;69.90
16313;DHT22;8265;52.622;13.296;2024-03-02T12:34:04;13.10;68.70
16313;DHT22;8265;52.622;13.296;2024-03-02T12:39:25;12.90;68.00
16313;DHT22;8265;52.622;13.296;2024-03-02T12:44:46;12.90;69.50
16313;DHT22;8265;52.622;13.296;2024-03-02T12:50:07;12.70;68.80
16313;DHT22;8265;52.622;13.296;2024-03-02T12:55:28;12.50;69.00
16313;DHT22;8265;52.622;13.296;2024-03-02T13:00:49;12.70;69.40
16313;DHT22;8265;52.622;13.296;2024-03-02T13:06:10;12.90;67.80
16313;DHT22;8265;52.622;13.296;2024-03-02T13:11:31;13.00;68.50
16313;DHT22;8265;52.622;13.296;2024-03-02T13:16:52;13.40;66.70
16313;DHT22;8265;52.622;13.296;2024-03-02T13:22:13;13.50;66.90
16313;DHT22;8265;52.622;13.296;2024-03-02T13:27:34;13.10;68.10
16313;DHT22;8265;52.622;13.296;2024-03-02T13:32:55;13.50;67.00
16313;DHT22;8265;52.622;13.296;2024-03-02T13:38:16;13.50;65.90
16313;DHT22;8265;52.622;13.296;2024-03-02T13:43:37;13.50;64.30
16313;DHT22;8265;52.622;13.296;2024-03-02T13:48:58;13.50;65.20
16313;DHT22;8265;52.622;13.296;2024-03-02T13:54:19;13.80;64.60
16313;DHT22;8265;52.622;13.296;2024-03-02T13:59:40;13.60;64.50
16313;DHT22;8265;52.622;13.296;2024-03-02T14:05:00;13.60;63.50
16313;DHT22;8265;52.622;13.296;2024-03-02T14:10:21;13.50;64.60
16313;DHT22;8265;52.622;13.296;2024-03-02T14:15:42;13.90;63.00
16313;DHT22;8265;52.622;13.296;2024-03-02T14:21:03;13.50;62.60
16313;DHT22;8265;52.622;13.296;2024-03-02T14:26:24;13.50;63.20
16313;DHT22;8265;52.622;13.296;2024-03-02T14:31:45;13.90;63.00
16313;DHT22;8265;52.622;13.296;2024-03-02T14:37:06;13.50;63.50
16313;DHT22;8265;52.622;13.296;2024-03-02T14:42:27;13.90;60.50
16313;DHT22;8265;52.622;13.296;2024-03-02T14:47:48;13.90;60.30
16313;DHT22;8265;52.622;13.296;2024-03-02T14:53:09;13.60;60.40
16313;DHT22;8265;52.622;13.296;2024-03-02T14:58:30;13.20;60.60
16313;DHT22;8265;52.622;13.296;2024-03-02T15:03:51;13.00;61.40
16313;DHT22;8265;52.622;13.296;2024-03-02T15:09:12;13.10;61.70
16313;DHT22;8265;52.622;13.296;2024-03-02T15:14:33;12.90;61.80
16313;DHT22;8265;52.622;13.296;2024-03-02T15:19:54;12.80;63.50
16313;DHT22;8265;52.622;13.296;2024-03-02T15:25:15;12.80;62.80
16313;DHT22;8265;52.622;13.296;2024-03-02T15:30:36;12.80;63.10
16313;DHT22;8265;52.622;13.296;2024-03-02T15:36:00;13.00;62.50
16313;DHT22;8265;52.622;13.296;2024-03-02T15:41:18;13.00;63.20
16313;DHT22;8265;52.622;13.296;2024-03-02T15:46:39;13.30;63.00
16313;DHT22;8265;52.622;13.296;2024-03-02T15:52:00;13.10;62.60
16313;DHT22;8265;52.622;13.296;2024-03-02T15:57:21;13.10;63.80
16313;DHT22;8265;52.622;13.296;2024-03-02T16:02:41;12.90;63.60
16313;DHT22;8265;52.622;13.296;2024-03-02T16:08:03;12.80;64.20
16313;DHT22;8265;52.622;13.296;2024-03-02T16:13:23;12.60;65.20
16313;DHT22;8265;52.622;13.296;2024-03-02T16:18:44;12.50;65.90
16313;DHT22;8265;52.622;13.296;2024-03-02T16:24:05;12.10;67.30
16313;DHT22;8265;52.622;13.296;2024-03-02T16:29:26;11.90;68.60
16313;DHT22;8265;52.622;13.296;2024-03-02T16:34:47;11.70;69.70
16313;DHT22;8265;52.622;13.296;2024-03-02T16:40:08;11.50;70.40
16313;DHT22;8265;52.622;13.296;2024-03-02T16:45:29;11.30;71.00
16313;DHT22;8265;52.622;13.296;2024-03-02T16:50:50;11.10;71.60
16313;DHT22;8265;52.622;13.296;2024-03-02T16:56:11;10.90;72.50
16313;DHT22;8265;52.622;13.296;2024-03-02T17:01:32;10.70;73.30
16313;DHT22;8265;52.622;13.296;2024-03-02T17:06:53;10.60;73.70
16313;DHT22;8265;52.622;13.296;2024-03-02T17:12:14;10.40;74.40
16313;DHT22;8265;52.622;13.296;2024-03-02T17:17:35;10.20;75.10
16313;DHT22;8265;52.622;13.296;2024-03-02T17:22:56;10.10;75.40
16313;DHT22;8265;52.622;13.296;2024-03-02T17:28:24;10.10;75.50
16313;DHT22;8265;52.622;13.296;2024-03-02T17:33:38;10.20;75.80
16313;DHT22;8265;52.622;13.296;2024-03-02T17:38:59;10.20;75.80
16313;DHT22;8265;52.622;13.296;2024-03-02T17:44:20;10.10;75.80
16313;DHT22;8265;52.622;13.296;2024-03-02T17:49:41;10.00;76.50
16313;DHT22;8265;52.622;13.296;2024-03-02T17:55:02;10.00;76.70
16313;DHT22;8265;52.622;13.296;2024-03-02T18:00:23;10.00;76.60
16313;DHT22;8265;52.622;13.296;2024-03-02T18:05:44;10.00;76.90
16313;DHT22;8265;52.622;13.296;2024-03-02T18:11:05;9.70;77.30
16313;DHT22;8265;52.622;13.296;2024-03-02T18:16:25;9.90;77.10
16313;DHT22;8265;52.622;13.296;2024-03-02T18:21:46;9.60;78.30
16313;DHT22;8265;52.622;13.296;2024-03-02T18:27:07;9.40;78.60
16313;DHT22;8265;52.622;13.296;2024-03-02T18:32:28;9.40;78.80
16313;DHT22;8265;52.622;13.296;2024-03-02T18:37:49;9.40;79.00
16313;DHT22;8265;52.622;13.296;2024-03-02T18:43:10;9.20;79.40
16313;DHT22;8265;52.622;13.296;2024-03-02T18:48:31;9.20;79.30
16313;DHT22;8265;52.622;13.296;2024-03-02T18:53:52;9.20;79.80
16313;DHT22;8265;52.622;13.296;2024-03-02T18:59:13;9.00;80.60
16313;DHT22;8265;52.622;13.296;2024-03-02T19:04:35;9.00;80.70
16313;DHT22;8265;52.622;13.296;2024-03-02T19:09:55;9.00;80.80
16313;DHT22;8265;52.622;13.296;2024-03-02T19:15:17;9.00;80.60
16313;DHT22;8265;52.622;13.296;2024-03-02T19:20:37;8.90;81.10
16313;DHT22;8265;52.622;13.296;2024-03-02T19:25:59;8.90;81.50
16313;DHT22;8265;52.622;13.296;2024-03-02T19:31:20;8.90;81.00
16313;DHT22;8265;52.622;13.296;2024-03-02T19:36:41;8.70;81.70
16313;DHT22;8265;52.622;13.296;2024-03-02T19:42:02;8.60;82.10
16313;DHT22;8265;52.622;13.296;2024-03-02T19:47:23;8.60;81.80
16313;DHT22;8265;52.622;13.296;2024-03-02T19:52:44;8.50;82.20
16313;DHT22;8265;52.622;13.296;2024-03-02T19:58:05;8.50;82.90
16313;DHT22;8265;52.622;13.296;2024-03-02T20:03:26;8.50;83.30
16313;DHT22;8265;52.622;13.296;2024-03-02T20:08:47;8.40;83.70
16313;DHT22;8265;52.622;13.296;2024-03-02T20:14:10;8.60;83.00
16313;DHT22;8265;52.622;13.296;2024-03-02T20:19:29;8.60;82.70
16313;DHT22;8265;52.622;13.296;2024-03-02T20:24:50;8.60;82.10
16313;DHT22;8265;52.622;13.296;2024-03-02T20:30:11;8.60;82.50
16313;DHT22;8265;52.622;13.296;2024-03-02T20:35:32;8.50;82.70
16313;DHT22;8265;52.622;13.296;2024-03-02T20:40:53;8.50;83.10
16313;DHT22;8265;52.622;13.296;2024-03-02T20:46:14;8.40;82.70
16313;DHT22;8265;52.622;13.296;2024-03-02T20:51:35;8.20;83.70
16313;DHT22;8265;52.622;13.296;2024-03-02T20:56:56;8.20;83.70
16313;DHT22;8265;52.622;13.296;2024-03-02T21:02:17;8.30;84.00
16313;DHT22;8265;52.622;13.296;2024-03-02T21:07:38;8.40;83.70
16313;DHT22;8265;52.622;13.296;2024-03-02T21:12:59;8.40;83.30
16313;DHT22;8265;52.622;13.296;2024-03-02T21:18:20;8.30;83.90
16313;DHT22;8265;52.622;13.296;2024-03-02T21:23:41;8.30;84.10
16313;DHT22;8265;52.622;13.296;2024-03-02T21:29:02;8.50;83.40
16313;DHT22;8265;52.622;13.296;2024-03-02T21:34:23;8.40;83.80
16313;DHT22;8265;52.622;13.296;2024-03-02T21:39:44;8.60;83.70
16313;DHT22;8265;52.622;13.296;2024-03-02T21:45:05;8.50;83.90
16313;DHT22;8265;52.622;13.296;2024-03-02T21:50:26;8.50;84.20
16313;DHT22;8265;52.622;13.296;2024-03-02T21:55:47;8.60;84.00
16313;DHT22;8265;52.622;13.296;2024-03-02T22:01:08;8.70;83.70
16313;DHT22;8265;52.622;13.296;2024-03-02T22:06:29;8.60;83.80
16313;DHT22;8265;52.622;13.296;2024-03-02T22:11:50;8.60;84.20
16313;DHT22;8265;52.622;13.296;2024-03-02T22:17:11;8.80;83.20
16313;DHT22;8265;52.622;13.296;2024-03-02T22:22:32;8.60;84.10
16313;DHT22;8265;52.622;13.296;2024-03-02T22:27:53;8.40;85.40
16313;DHT22;8265;52.622;13.296;2024-03-02T22:33:14;8.50;85.00
16313;DHT22;8265;52.622;13.296;2024-03-02T22:38:35;8.40;85.30
16313;DHT22;8265;52.622;13.296;2024-03-02T22:43:56;8.60;84.40
16313;DHT22;8265;52.622;13.296;2024-03-02T22:49:17;8.30;85.30
16313;DHT22;8265;52.622;13.296;2024-03-02T22:54:38;8.40;84.70
16313;DHT22;8265;52.622;13.296;2024-03-02T22:59:59;8.30;85.10
16313;DHT22;8265;52.622;13.296;2024-03-02T23:05:20;8.40;84.30
16313;DHT22;8265;52.622;13.296;2024-03-02T23:10:41;8.50;83.20
16313;DHT22;8265;52.622;13.296;2024-03-02T23:16:02;8.40;82.80
16313;DHT22;8265;52.622;13.296;2024-03-02T23:21:23;8.10;84.00
16313;DHT22;8265;52.622;13.296;2024-03-02T23:26:44;8.10;84.40
16313;DHT22;8265;52.622;13.296;2024-03-02T23:32:05;8.20;83.70
16313;DHT22;8265;52.622;13.296;2024-03-02T23:37:26;8.10;83.30
16313;DHT22;8265;52.622;13.296;2024-03-02T23:42:47;8.00;83.80
16313;DHT22;8265;52.622;13.296;2024-03-02T23:48:08;7.90;84.00
16313;DHT22;8265;52.622;13.296;2024-03-02T23:53:29;7.60;84.70
16313;DHT22;8265;52.622;13.296;2024-03-02T23:58:50;7.60;84.40
